Terminal Aerodrome Forecast
Issued by NWS

Home | Current Version | Previous Version | Text Only | Print | Product List | Glossary On
Versions: 1 2 3 4 5 6 7 8 9 10 11 12 13 14 15 16 17 18 19 20 21 22 23 24
622
FTUS43 KJKL 291739
TAFSME
TAF
KSME 291739Z 2918/3018 31004KT P6SM SCT030 BKN045
     FM300800 00000KT 3SM BR BKN025
     FM301300 VRB05KT P6SM SCT025 BKN035=

USA.gov is the U.S. government's official web portal to all federal, state and local government web resources and services.